Time;durP1;ratioP1;P1;durP2;ratioP2;P2;SDS_P1;SDS_P2;PMS_P1;PMS_P2;Temp;Humidity;BMP_temperature;BMP_pressure;BME280_temperature;BME280_humidity;BME280_pressure;Samples;Min_cycle;Max_cycle;Signal;HPM_P1;HPM_P2
2021/12/12 00:02:34;;;;;;;25.65;15.93;;;;;;;5.40;100.00;99804.48;1586875;89;21581;-74
2021/12/12 00:04:59;;;;;;;28.15;16.32;;;;;;;5.39;100.00;99807.75;1591557;89;21587;-75
2021/12/12 00:07:33;;;;;;;27.82;16.52;;;;;;;5.41;100.00;99809.65;1641628;86;20999;-75
2021/12/12 00:10:04;;;;;;;25.10;16.15;;;;;;;5.41;100.00;99797.40;1639039;86;21018;-75
2021/12/12 00:12:39;;;;;;;27.67;15.90;;;;;;;5.44;100.00;99815.09;1639944;86;21612;-75
2021/12/12 00:15:15;;;;;;;27.98;17.00;;;;;;;5.43;100.00;99814.27;1637101;86;21517;-75
2021/12/12 00:17:41;;;;;;;26.30;16.45;;;;;;;5.44;100.00;99815.09;1631067;86;21054;-74
2021/12/12 00:20:13;;;;;;;26.33;15.60;;;;;;;5.44;100.00;99814.55;1636244;86;21051;-76
2021/12/12 00:22:46;;;;;;;26.10;16.70;;;;;;;5.45;100.00;99816.17;1632870;86;21525;-76
2021/12/12 00:25:11;;;;;;;25.32;16.27;;;;;;;5.45;100.00;99819.45;1634894;86;21837;-75
2021/12/12 00:27:42;;;;;;;28.23;16.02;;;;;;;5.43;100.00;99822.98;1633163;86;21526;-74
2021/12/12 00:30:10;;;;;;;26.77;16.32;;;;;;;5.43;100.00;99817.55;1634275;86;20911;-74
2021/12/12 00:32:42;;;;;;;29.02;16.97;;;;;;;5.42;100.00;99826.25;1639451;86;21002;-74
2021/12/12 00:35:16;;;;;;;24.77;15.35;;;;;;;5.39;100.00;99820.00;1629097;86;21009;-74
2021/12/12 00:37:48;;;;;;;26.17;17.05;;;;;;;5.37;100.00;99819.45;1642513;86;20923;-74
2021/12/12 00:40:24;;;;;;;29.40;17.57;;;;;;;5.34;100.00;99823.27;1634766;86;21110;-77
2021/12/12 00:42:57;;;;;;;25.60;16.40;;;;;;;5.34;100.00;99823.27;1627694;86;21021;-74
2021/12/12 00:45:28;;;;;;;28.92;17.15;;;;;;;5.34;100.00;99820.55;1592079;88;21023;-75
2021/12/12 00:47:59;;;;;;;25.30;16.48;;;;;;;5.32;100.00;99820.83;1566163;89;20948;-76
2021/12/12 00:50:37;;;;;;;35.08;17.37;;;;;;;5.31;100.00;99816.47;1587903;89;20973;-75
2021/12/12 00:53:10;;;;;;;31.77;19.05;;;;;;;5.29;100.00;99813.20;1588986;89;21200;-75
2021/12/12 00:55:40;;;;;;;28.83;17.40;;;;;;;5.27;100.00;99814.84;1634647;85;20983;-74
2021/12/12 00:58:12;;;;;;;28.52;17.92;;;;;;;5.27;100.00;99812.66;1620718;87;21592;-75
2021/12/12 01:00:52;;;;;;;31.30;18.20;;;;;;;5.25;100.00;99814.30;1635955;86;21021;-75
2021/12/12 01:03:29;;;;;;;26.40;17.75;;;;;;;5.26;100.00;99817.84;1631493;86;21044;-74
2021/12/12 01:06:01;;;;;;;26.80;17.42;;;;;;;5.26;100.00;99824.09;1621058;86;21220;-74
2021/12/12 01:08:33;;;;;;;27.73;16.23;;;;;;;5.26;100.00;99829.54;1634447;86;20985;-74
2021/12/12 01:11:23;;;;;;;33.13;19.05;;;;;;;5.27;100.00;99833.08;1645722;86;21076;-74
2021/12/12 01:13:51;;;;;;;29.15;18.50;;;;;;;5.27;100.00;99818.92;1631047;86;21032;-74
2021/12/12 01:16:35;;;;;;;29.45;18.23;;;;;;;5.29;100.00;99822.73;1616647;86;21000;-74
2021/12/12 01:19:17;;;;;;;28.90;17.98;;;;;;;5.28;100.00;99823.28;1632918;86;21159;-74
2021/12/12 01:21:50;;;;;;;35.48;18.77;;;;;;;5.29;100.00;99830.36;1631092;86;21020;-73
2021/12/12 01:24:27;;;;;;;34.15;19.35;;;;;;;5.30;100.00;99836.62;1645241;86;21032;-74
2021/12/12 01:26:57;;;;;;;31.85;18.80;;;;;;;5.31;100.00;99834.98;1632535;86;21148;-74
2021/12/12 01:29:29;;;;;;;32.85;19.32;;;;;;;5.33;100.00;99835.25;1641872;86;21108;-75
2021/12/12 01:32:00;;;;;;;33.02;19.67;;;;;;;5.35;100.00;99835.80;1637422;86;21176;-75
2021/12/12 01:34:29;;;;;;;;;;;;;;;5.35;100.00;99835.80;1617787;86;21643;-75
2021/12/12 01:40:12;;;;;;;35.13;19.77;;;;;;;5.38;100.00;99843.41;1629688;86;21546;-76
2021/12/12 01:42:58;;;;;;;35.90;20.82;;;;;;;5.38;100.00;99848.31;1629409;86;21028;-74
2021/12/12 01:45:29;;;;;;;38.90;19.87;;;;;;;5.39;100.00;99850.49;1631533;86;21563;-75
2021/12/12 01:48:04;;;;;;;37.48;20.30;;;;;;;5.38;100.00;99852.40;1633700;86;21193;-76
2021/12/12 01:50:49;;;;;;;41.20;22.82;;;;;;;5.41;100.00;99852.39;1602792;87;21138;-76
2021/12/12 01:53:17;;;;;;;37.67;20.25;;;;;;;5.41;100.00;99852.39;1618231;87;21153;-75
2021/12/12 01:55:59;;;;;;;34.38;20.65;;;;;;;5.41;100.00;99849.67;1568558;88;21080;-75
2021/12/12 01:58:28;;;;;;;35.75;20.32;;;;;;;5.42;100.00;99849.95;1585148;88;21151;-73
2021/12/12 02:01:07;;;;;;;41.50;21.90;;;;;;;5.42;100.00;99844.50;1563052;89;21071;-75
2021/12/12 02:03:42;;;;;;;37.35;20.02;;;;;;;5.43;100.00;99849.67;1580644;89;21248;-76
2021/12/12 02:06:14;;;;;;;36.53;21.25;;;;;;;5.46;100.00;99848.30;1576941;88;21605;-72
2021/12/12 02:08:49;;;;;;;35.98;21.73;;;;;;;5.45;100.00;99850.21;1611649;87;21009;-71
2021/12/12 02:11:27;;;;;;;36.55;21.00;;;;;;;5.45;100.00;99850.21;1627868;86;21623;-74
2021/12/12 02:14:02;;;;;;;40.03;22.42;;;;;;;5.47;100.00;99856.75;1624045;86;21643;-73
2021/12/12 02:16:28;;;;;;;45.03;23.22;;;;;;;5.47;100.00;99858.92;1633225;86;21676;-73
2021/12/12 02:18:59;;;;;;;38.65;21.52;;;;;;;5.50;100.00;99854.84;1638761;86;21220;-73
2021/12/12 02:21:37;;;;;;;39.40;21.25;;;;;;;5.50;100.00;99843.94;1629873;86;21075;-73
2021/12/12 02:37:38;;;;;;;34.73;19.15;;;;;;;5.53;100.00;99865.18;1626958;86;21543;-75
2021/12/12 02:40:10;;;;;;;35.63;19.02;;;;;;;5.54;100.00;99866.81;1643473;86;21106;-74
2021/12/12 02:42:41;;;;;;;32.42;18.92;;;;;;;5.55;100.00;99861.64;1633203;86;21077;-74
2021/12/12 02:45:09;;;;;;;31.00;17.82;;;;;;;5.55;100.00;99867.90;1638172;86;21607;-73
2021/12/12 02:47:39;;;;;;;32.05;16.87;;;;;;;5.55;100.00;99857.01;1649672;85;21032;-74
2021/12/12 02:50:24;;;;;;;30.65;17.77;;;;;;;5.56;100.00;99861.91;1616651;86;22235;-73
2021/12/12 02:53:00;;;;;;;33.73;17.23;;;;;;;5.56;100.00;99857.83;1623951;87;21026;-75
2021/12/12 02:55:33;;;;;;;31.80;17.62;;;;;;;5.61;100.00;99859.99;1636323;86;21105;-74
2021/12/12 02:58:04;;;;;;;30.70;17.30;;;;;;;5.60;100.00;99854.82;1646978;86;21063;-75
2021/12/12 03:00:35;;;;;;;28.52;16.52;;;;;;;5.60;100.00;99858.91;1640472;86;21115;-75
2021/12/12 03:03:12;;;;;;;28.32;15.68;;;;;;;5.57;100.00;99863.00;1620710;87;21202;-75
2021/12/12 03:05:45;;;;;;;26.70;16.40;;;;;;;5.56;100.00;99865.45;1624102;87;21448;-76
2021/12/12 03:08:16;;;;;;;25.25;14.93;;;;;;;5.57;100.00;99859.45;1606764;89;21095;-76
2021/12/12 03:10:50;;;;;;;25.75;15.43;;;;;;;5.57;100.00;99859.45;1609814;88;20931;-75
2021/12/12 03:13:23;;;;;;;25.57;15.88;;;;;;;5.57;100.00;99867.62;1589504;89;20972;-75
2021/12/12 03:15:54;;;;;;;28.05;15.78;;;;;;;5.55;100.00;99873.34;1589557;89;20932;-75
2021/12/12 03:18:40;;;;;;;29.15;17.40;;;;;;;5.55;100.00;99873.89;1589491;89;20932;-75
2021/12/12 03:21:15;;;;;;;27.60;15.80;;;;;;;5.55;100.00;99876.61;1609053;88;21011;-75
2021/12/12 03:23:42;;;;;;;28.02;15.55;;;;;;;5.54;100.00;99881.25;1611833;87;21020;-74
2021/12/12 03:26:13;;;;;;;27.98;14.23;;;;;;;5.52;100.00;99882.61;1591565;87;21047;-74
2021/12/12 03:28:43;;;;;;;29.20;15.18;;;;;;;5.51;100.00;99883.16;1610366;89;21917;-73
2021/12/12 03:31:14;;;;;;;27.87;15.70;;;;;;;5.51;100.00;99885.06;1614099;87;20975;-74
2021/12/12 03:33:45;;;;;;;27.82;15.32;;;;;;;5.50;100.00;99886.16;1610430;89;20965;-74
2021/12/12 03:36:15;;;;;;;26.17;14.65;;;;;;;5.48;100.00;99883.70;1610643;87;20941;-75
2021/12/12 03:38:53;;;;;;;30.85;16.48;;;;;;;5.47;100.00;99876.63;1590917;89;20937;-74
2021/12/12 03:41:27;;;;;;;29.85;15.65;;;;;;;5.46;100.00;99871.45;1610828;88;20953;-75
2021/12/12 03:44:00;;;;;;;31.93;16.97;;;;;;;5.46;100.00;99876.35;1610691;89;21575;-75
2021/12/12 03:46:29;;;;;;;28.25;16.10;;;;;;;5.42;100.00;99869.82;1611221;87;21096;-75
2021/12/12 03:49:01;;;;;;;27.25;15.00;;;;;;;5.44;100.00;99869.55;1614435;88;20986;-76
2021/12/12 03:51:32;;;;;;;30.10;14.53;;;;;;;5.45;100.00;99869.81;1587402;88;20967;-75
2021/12/12 03:54:02;;;;;;;29.52;15.32;;;;;;;5.45;100.00;99869.81;1612157;88;21222;-77
2021/12/12 03:56:34;;;;;;;28.45;15.38;;;;;;;5.46;100.00;99867.36;1599342;87;20931;-73
2021/12/12 03:59:05;;;;;;;29.20;15.00;;;;;;;5.46;100.00;99868.19;1612471;87;21008;-74
2021/12/12 04:01:43;;;;;;;26.40;14.98;;;;;;;5.49;100.00;99876.34;1612448;87;38090;-73
2021/12/12 04:04:17;;;;;;;27.58;13.85;;;;;;;5.49;100.00;99875.80;1617165;87;20963;-75
2021/12/12 04:06:50;;;;;;;28.45;13.90;;;;;;;5.49;100.00;99873.63;1618059;87;21067;-75
2021/12/12 04:09:20;;;;;;;26.48;13.95;;;;;;;5.50;100.00;99871.98;1635296;86;20997;-74
2021/12/12 04:11:51;;;;;;;30.25;13.88;;;;;;;5.51;100.00;99874.98;1641770;86;21127;-74
2021/12/12 04:14:22;;;;;;;25.95;13.48;;;;;;;5.51;100.00;99875.53;1626887;86;21142;-75
2021/12/12 04:16:57;;;;;;;27.27;14.58;;;;;;;5.52;100.00;99878.52;1610538;88;20996;-75
2021/12/12 04:19:26;;;;;;;30.88;14.03;;;;;;;5.51;100.00;99875.53;1635775;86;21109;-75
2021/12/12 04:21:56;;;;;;;26.15;12.80;;;;;;;5.53;100.00;99879.61;1626970;86;21070;-76
2021/12/12 04:24:29;;;;;;;28.38;13.93;;;;;;;5.52;100.00;99871.72;1631370;86;21030;-75
2021/12/12 04:26:58;;;;;;;25.08;13.43;;;;;;;5.54;100.00;99876.34;1630527;86;20997;-75
2021/12/12 04:29:32;;;;;;;26.52;12.80;;;;;;;5.54;100.00;99882.61;1623127;86;21100;-75
2021/12/12 04:32:16;;;;;;;29.65;14.50;;;;;;;5.53;100.00;99879.61;1629590;86;21158;-76
2021/12/12 04:34:47;;;;;;;26.00;14.07;;;;;;;5.58;100.00;99884.23;1626594;86;21078;-73
2021/12/12 04:37:16;;;;;;;23.32;12.55;;;;;;;5.59;100.00;99879.87;1634826;86;21028;-73
2021/12/12 04:39:48;;;;;;;29.72;14.23;;;;;;;5.60;100.00;99877.97;1630915;86;21013;-71
2021/12/12 04:42:24;;;;;;;31.40;13.53;;;;;;;5.61;100.00;99878.24;1629074;86;21081;-72
2021/12/12 04:44:54;;;;;;;29.20;13.68;;;;;;;5.63;100.00;99874.15;1577150;90;21146;-73
2021/12/12 04:50:54;;;;;;;29.18;13.62;;;;;;;5.67;100.00;99878.50;1603208;87;20955;-74
2021/12/12 04:53:31;;;;;;;26.97;12.93;;;;;;;5.69;100.00;99874.96;1607741;88;21057;-82
2021/12/12 04:56:29;;;;;;;35.85;13.43;;;;;;;5.73;100.00;99880.67;1554714;89;20959;-75
2021/12/12 04:59:20;;;;;;;30.97;13.85;;;;;;;5.73;100.00;99881.49;1636973;86;21630;-75
2021/12/12 05:02:14;;;;;;;31.57;14.63;;;;;;;5.76;100.00;99878.22;1637852;85;20973;-75
2021/12/12 05:05:14;;;;;;;33.18;14.68;;;;;;;5.76;100.00;99876.85;1625312;86;21453;-77
2021/12/12 05:08:04;;;;;;;29.52;14.68;;;;;;;5.76;100.00;99870.59;1580657;89;21584;-79
2021/12/12 05:10:40;;;;;;;34.48;15.63;;;;;;;5.79;100.00;99883.08;1558238;89;21097;-79
2021/12/12 05:13:25;;;;;;;31.57;15.05;;;;;;;5.81;100.00;99882.26;1630357;86;21797;-79
2021/12/12 05:15:56;;;;;;;37.53;15.63;;;;;;;5.82;100.00;99874.36;1645339;86;21003;-79
2021/12/12 05:18:35;;;;;;;26.65;14.53;;;;;;;5.82;100.00;99872.99;1632134;86;21196;-79
2021/12/12 05:21:08;;;;;;;31.48;16.15;;;;;;;5.82;100.00;99879.80;1632015;86;21089;-71
2021/12/12 05:23:43;;;;;;;37.78;16.42;;;;;;;5.82;100.00;99885.80;1635426;86;21094;-72
2021/12/12 05:26:20;;;;;;;33.88;16.37;;;;;;;5.83;100.00;99890.16;1636303;86;21212;-83
2021/12/12 05:28:51;;;;;;;33.48;16.00;;;;;;;5.83;100.00;99885.52;1636526;86;21034;-77
2021/12/12 05:31:20;;;;;;;32.28;16.70;;;;;;;5.88;100.00;99892.88;1635774;86;21612;-74
2021/12/12 05:33:55;;;;;;;36.00;17.95;;;;;;;5.88;100.00;99892.88;1635986;86;21626;-78
2021/12/12 05:36:22;;;;;;;40.70;17.80;;;;;;;5.88;100.00;99905.13;1636159;86;21062;-72
2021/12/12 05:38:52;;;;;;;39.00;17.90;;;;;;;5.88;100.00;99905.95;1621806;86;21579;-71
2021/12/12 05:41:23;;;;;;;44.05;18.62;;;;;;;5.89;100.00;99912.25;1615042;86;21591;-73
2021/12/12 05:43:54;;;;;;;36.00;17.85;;;;;;;5.90;100.00;99911.16;1633767;86;21510;-72
2021/12/12 05:46:28;;;;;;;38.85;18.12;;;;;;;5.90;100.00;99918.78;1620393;87;20982;-77
2021/12/12 05:48:56;;;;;;;37.70;18.07;;;;;;;5.91;100.00;99921.78;1615541;86;21046;-75
2021/12/12 05:51:22;;;;;;;42.90;18.85;;;;;;;5.90;100.00;99920.14;1636776;86;21528;-73
2021/12/12 05:53:59;;;;;;;44.88;18.73;;;;;;;5.88;100.00;99919.58;1636948;86;21674;-73
2021/12/12 05:56:29;;;;;;;40.28;19.05;;;;;;;5.91;100.00;99924.50;1636954;86;20984;-72
2021/12/12 05:58:58;;;;;;;40.60;17.80;;;;;;;5.92;100.00;99921.23;1639341;86;20990;-74
2021/12/12 06:01:33;;;;;;;35.38;16.97;;;;;;;5.91;100.00;99923.14;1635998;86;21002;-74
2021/12/12 06:04:01;;;;;;;38.20;17.37;;;;;;;5.92;100.00;99933.50;1612599;87;21176;-71
2021/12/12 06:06:37;;;;;;;35.85;17.42;;;;;;;5.92;100.00;99939.76;1642266;86;22256;-71
2021/12/12 06:09:13;;;;;;;42.83;18.67;;;;;;;5.95;100.00;99932.94;1616277;86;20927;-71
2021/12/12 06:11:46;;;;;;;31.45;16.00;;;;;;;5.93;100.00;99938.67;1634898;86;21022;-72
2021/12/12 06:14:18;;;;;;;37.53;17.80;;;;;;;5.91;100.00;99940.85;1647483;86;20992;-74
2021/12/12 06:16:47;;;;;;;32.03;15.48;;;;;;;5.89;100.00;99938.95;1636420;86;21538;-86
2021/12/12 06:19:20;;;;;;;36.13;17.15;;;;;;;5.88;100.00;99936.47;1635951;86;21243;-94
2021/12/12 06:21:55;;;;;;;33.15;16.80;;;;;;;5.88;100.00;99948.18;1620100;87;21646;-84
2021/12/12 06:24:26;;;;;;;38.17;17.67;;;;;;;5.86;100.00;99953.09;1637615;86;20980;-82
2021/12/12 06:26:59;;;;;;;33.98;16.00;;;;;;;5.84;100.00;99950.37;1640655;86;20946;-80
2021/12/12 06:29:31;;;;;;;33.20;17.42;;;;;;;5.82;100.00;99948.47;1649964;86;21169;-74
2021/12/12 06:32:06;;;;;;;29.02;15.90;;;;;;;5.81;100.00;99953.09;1635827;86;21620;-75
2021/12/12 06:34:36;;;;;;;35.25;16.62;;;;;;;5.80;100.00;99956.91;1635124;86;21105;-74
2021/12/12 06:37:07;;;;;;;;;;;;;;;5.79;100.00;99953.09;1638914;86;21039;-75
2021/12/12 06:39:34;;;;;;;32.80;16.30;;;;;;;5.77;100.00;99955.31;1636767;86;20433;-73
2021/12/12 06:42:03;;;;;;;32.67;17.02;;;;;;;5.77;100.00;99955.31;1653688;86;21982;-73
2021/12/12 06:44:35;;;;;;;33.10;16.25;;;;;;;5.74;100.00;99947.14;1622695;86;20907;-71
2021/12/12 06:47:08;;;;;;;32.28;16.67;;;;;;;5.72;100.00;99957.49;1625821;87;21088;-74
2021/12/12 06:49:39;;;;;;;32.45;16.17;;;;;;;5.70;100.00;99958.86;1637732;86;21086;-76
2021/12/12 06:52:08;;;;;;;32.08;15.50;;;;;;;5.67;100.00;99958.86;1645668;86;21680;-75
2021/12/12 06:54:37;;;;;;;28.87;16.40;;;;;;;5.67;100.00;99952.59;1633325;86;21160;-75
2021/12/12 06:57:08;;;;;;;27.87;15.70;;;;;;;5.64;100.00;99955.31;1638915;86;20967;-74
2021/12/12 06:59:39;;;;;;;30.72;16.42;;;;;;;5.60;100.00;99945.52;1637408;86;21009;-75
2021/12/12 07:02:12;;;;;;;30.60;16.20;;;;;;;5.58;100.00;99953.69;1642883;86;21039;-74
2021/12/12 07:04:45;;;;;;;30.95;15.85;;;;;;;5.56;100.00;99953.14;1573445;88;20979;-74
2021/12/12 07:07:15;;;;;;;28.98;15.50;;;;;;;5.55;100.00;99956.41;1617589;87;21232;-74
2021/12/12 07:09:46;;;;;;;30.65;15.93;;;;;;;5.55;100.00;99952.87;1593998;88;21041;-75
2021/12/12 07:12:22;;;;;;;33.90;17.17;;;;;;;5.54;100.00;99959.41;1588930;88;21057;-74
2021/12/12 07:14:56;;;;;;;31.05;16.50;;;;;;;5.51;100.00;99953.95;1598428;89;20950;-74
2021/12/12 07:17:30;;;;;;;34.95;18.12;;;;;;;5.53;100.00;99960.49;1586154;88;21052;-75
2021/12/12 07:20:03;;;;;;;40.00;18.98;;;;;;;5.53;100.00;99960.49;1637714;86;20987;-74
2021/12/12 07:22:34;;;;;;;42.78;19.50;;;;;;;5.53;100.00;99964.03;1635877;86;20916;-74
2021/12/12 07:25:07;;;;;;;43.73;18.60;;;;;;;5.50;100.00;99963.76;1637081;86;20996;-75
2021/12/12 07:27:40;;;;;;;51.88;21.93;;;;;;;5.51;100.00;99966.75;1639086;86;21114;-74
2021/12/12 07:30:11;;;;;;;41.77;18.30;;;;;;;5.49;100.00;99969.75;1632655;86;21050;-76
2021/12/12 07:32:39;;;;;;;41.65;20.02;;;;;;;5.46;100.00;99976.28;1635304;86;22155;-74
2021/12/12 07:35:11;;;;;;;42.55;19.73;;;;;;;5.40;100.00;99977.37;1634617;86;20899;-75
2021/12/12 07:37:44;;;;;;;43.58;19.05;;;;;;;5.33;100.00;99977.63;1639557;86;21012;-74
2021/12/12 07:40:20;;;;;;;49.75;22.05;;;;;;;5.33;100.00;99977.63;1634916;86;21015;-74
2021/12/12 07:42:53;;;;;;;47.98;20.50;;;;;;;5.35;100.00;99990.97;1639813;86;21025;-73
2021/12/12 07:45:21;;;;;;;49.10;22.75;;;;;;;5.35;100.00;100001.86;1633515;86;21178;-74
2021/12/12 07:47:54;;;;;;;47.25;21.62;;;;;;;5.35;100.00;100001.86;1634397;86;21422;-75
2021/12/12 07:50:24;;;;;;;52.80;22.32;;;;;;;5.33;100.00;100000.77;1635718;86;20950;-73
2021/12/12 07:52:56;;;;;;;45.20;19.50;;;;;;;5.33;100.00;99999.41;1632701;86;21975;-74
2021/12/12 07:55:23;;;;;;;48.80;22.42;;;;;;;5.32;100.00;100011.38;1631431;86;21639;-73
2021/12/12 07:57:51;;;;;;;47.98;20.90;;;;;;;5.29;100.00;100010.02;1622238;86;21575;-74
2021/12/12 08:00:23;;;;;;;50.48;21.52;;;;;;;5.29;100.00;100010.02;1637196;86;21049;-72
2021/12/12 08:03:01;;;;;;;60.73;24.10;;;;;;;5.27;100.00;100021.72;1635488;86;21070;-73
2021/12/12 08:05:32;;;;;;;50.67;22.35;;;;;;;5.27;100.00;100027.16;1635980;85;21020;-71
2021/12/12 08:08:09;;;;;;;54.98;23.30;;;;;;;5.26;100.00;100021.98;1640178;86;21546;-72
2021/12/12 08:10:38;;;;;;;58.80;24.95;;;;;;;5.26;100.00;100024.71;1638353;86;21158;-73
2021/12/12 08:13:09;;;;;;;57.90;23.55;;;;;;;5.26;100.00;100018.72;1598191;87;21078;-72
2021/12/12 08:15:41;;;;;;;51.58;21.60;;;;;;;5.24;100.00;100026.89;1637270;86;21623;-71
2021/12/12 08:18:11;;;;;;;43.42;20.00;;;;;;;5.22;100.00;100031.23;1633814;86;21101;-73
2021/12/12 08:20:44;;;;;;;50.83;20.68;;;;;;;5.21;100.00;100030.14;1637075;86;21085;-72
2021/12/12 08:23:13;;;;;;;53.38;23.50;;;;;;;5.19;100.00;100034.52;1634105;86;21548;-73
2021/12/12 08:25:39;;;;;;;52.60;23.62;;;;;;;5.16;100.00;100030.98;1634724;86;21063;-74
2021/12/12 08:28:13;;;;;;;54.80;22.02;;;;;;;5.15;100.00;100035.33;1633779;86;21057;-74
2021/12/12 08:30:44;;;;;;;38.67;18.23;;;;;;;5.14;100.00;100034.51;1633231;85;21549;-73
2021/12/12 08:33:15;;;;;;;44.23;20.23;;;;;;;5.14;100.00;100028.25;1638126;86;21129;-74
2021/12/12 08:35:43;;;;;;;41.33;19.50;;;;;;;5.10;100.00;100040.75;1627931;85;21106;-75
2021/12/12 08:38:14;;;;;;;49.35;20.37;;;;;;;5.05;100.00;100035.30;1612769;87;21497;-72
2021/12/12 08:41:01;;;;;;;44.08;20.27;;;;;;;4.99;100.00;100029.02;1625499;87;21154;-74
2021/12/12 08:43:25;;;;;;;45.45;20.82;;;;;;;4.94;100.00;100033.08;1577188;90;21115;-74
2021/12/12 08:46:08;;;;;;;42.40;18.52;;;;;;;4.84;100.00;100024.88;1617875;87;21481;-78
2021/12/12 08:48:43;;;;;;;37.40;19.75;;;;;;;4.84;100.00;100024.88;1603710;88;20968;-78
2021/12/12 08:51:19;;;;;;;38.10;18.82;;;;;;;4.82;100.00;100035.20;1615202;88;21018;-76
2021/12/12 08:53:50;;;;;;;40.55;18.45;;;;;;;4.78;100.00;100041.72;1611038;88;21012;-73
2021/12/12 08:56:42;;;;;;;32.48;17.75;;;;;;;4.80;100.00;100034.66;1608111;88;20985;-75
2021/12/12 08:59:05;;;;;;;32.05;16.50;;;;;;;4.78;100.00;100034.92;1595234;88;21177;-81
2021/12/12 09:01:33;;;;;;;36.35;18.23;;;;;;;4.76;100.00;100030.29;1609990;87;21192;-77
2021/12/12 09:04:03;;;;;;;32.85;16.80;;;;;;;4.72;100.00;100029.18;1608506;88;21027;-75
2021/12/12 09:06:46;;;;;;;41.42;19.52;;;;;;;4.71;100.00;100030.27;1612350;87;21091;-75
2021/12/12 09:09:21;;;;;;;46.55;20.65;;;;;;;4.71;100.00;100030.27;1624505;88;21024;-77
2021/12/12 09:12:21;;;;;;;39.60;20.60;;;;;;;4.71;100.00;100024.01;1608835;87;21079;-77
2021/12/12 09:15:02;;;;;;;37.15;17.77;;;;;;;4.69;100.00;100023.45;1581250;88;21087;-82
2021/12/12 09:17:41;;;;;;;40.67;19.40;;;;;;;4.71;100.00;100013.13;1589589;88;20948;-85
2021/12/12 09:20:15;;;;;;;35.20;17.62;;;;;;;4.69;100.00;100003.05;1603601;87;21216;-75
2021/12/12 09:23:02;;;;;;;34.40;17.95;;;;;;;4.74;100.00;100007.16;1603453;89;20955;-79
2021/12/12 09:25:42;;;;;;;33.73;17.85;;;;;;;4.75;100.00;100000.09;1600027;88;21027;-78
2021/12/12 09:28:11;;;;;;;36.30;17.62;;;;;;;4.75;100.00;100000.09;1585788;89;20983;-81
2021/12/12 09:30:42;;;;;;;35.00;17.98;;;;;;;4.76;100.00;99994.92;1601783;89;21600;-80
2021/12/12 09:33:24;;;;;;;39.73;20.37;;;;;;;4.76;100.00;99995.47;1604335;89;21013;-79
2021/12/12 09:36:03;;;;;;;37.58;19.85;;;;;;;4.78;100.00;99990.58;1586288;89;21039;-76
2021/12/12 09:39:18;;;;;;;34.40;18.12;;;;;;;4.82;100.00;99990.33;1603832;89;20952;-81
2021/12/12 09:42:16;;;;;;;30.80;17.37;;;;;;;4.85;100.00;99986.53;1604378;87;21178;-86
2021/12/12 09:45:07;;;;;;;33.28;16.75;;;;;;;4.85;100.00;99986.53;1603593;88;20931;-81
2021/12/12 09:51:14;;;;;;;37.15;18.50;;;;;;;4.84;100.00;99986.80;1635616;86;21107;-75
2021/12/12 09:51:24;;;;;;;32.90;16.77;;;;;;;4.84;100.00;99992.23;1604670;86;21172;-75
2021/12/12 09:54:23;;;;;;;29.63;16.87;;;;;;;4.90;100.00;99983.83;1589720;88;21139;-84
2021/12/12 09:57:03;;;;;;;;;;;;;;;4.90;100.00;99983.83;1574122;89;21612;-73
2021/12/12 10:00:14;;;;;;;25.32;13.48;;;;;;;4.89;100.00;99986.81;1589040;89;20439;-72
2021/12/12 10:02:56;;;;;;;22.52;12.58;;;;;;;4.77;100.00;99978.89;1639084;86;21054;-70
2021/12/12 10:05:39;;;;;;;18.92;11.18;;;;;;;4.77;100.00;99978.89;1622372;86;21054;-70
2021/12/12 10:08:19;;;;;;;18.30;10.70;;;;;;;4.73;100.00;99981.05;1643546;86;21006;-72
2021/12/12 10:11:11;;;;;;;20.85;11.73;;;;;;;4.72;100.00;99988.93;1587420;89;20966;-71
2021/12/12 10:13:46;;;;;;;26.23;13.83;;;;;;;4.68;100.00;99981.02;1607733;88;20987;-70
2021/12/12 10:16:36;;;;;;;21.93;13.10;;;;;;;4.64;100.00;99982.91;1612739;87;21035;-71
2021/12/12 10:19:40;;;;;;;21.37;11.78;;;;;;;4.58;100.00;99997.61;1613581;87;21010;-71
2021/12/12 10:22:21;;;;;;;20.68;13.20;;;;;;;4.52;100.00;99991.86;1584672;88;21265;-70
2021/12/12 10:25:04;;;;;;;21.00;12.53;;;;;;;4.43;100.00;99997.53;1609239;88;21027;-70
2021/12/12 10:27:53;;;;;;;20.88;12.85;;;;;;;4.36;100.00;99994.23;1600848;88;20927;-71
2021/12/12 10:30:27;;;;;;;18.55;12.03;;;;;;;4.35;100.00;99995.85;1611917;87;22200;-71
2021/12/12 10:33:25;;;;;;;19.65;11.50;;;;;;;4.31;100.00;99992.84;1608394;86;21774;-71
2021/12/12 10:36:02;;;;;;;18.85;10.35;;;;;;;4.29;100.00;99994.47;1646891;86;21012;-72
2021/12/12 10:39:10;;;;;;;17.67;11.03;;;;;;;4.25;100.00;99998.79;1628129;86;22159;-71
2021/12/12 10:41:48;;;;;;;18.87;11.53;;;;;;;4.21;100.00;99997.67;1625559;86;21218;-72
2021/12/12 10:44:36;;;;;;;18.07;11.25;;;;;;;4.25;100.00;99989.81;1632515;86;21044;-73
2021/12/12 10:47:12;;;;;;;19.27;11.70;;;;;;;4.27;100.00;99987.11;1654568;86;21636;-71
2021/12/12 10:50:10;;;;;;;16.50;10.00;;;;;;;4.26;100.00;99994.17;1621161;86;21546;-71
2021/12/12 10:53:20;;;;;;;17.15;10.65;;;;;;;4.23;100.00;99990.08;1634339;86;21535;-72
2021/12/12 10:55:58;;;;;;;17.43;10.80;;;;;;;4.20;100.00;99991.97;1629250;86;20992;-72
2021/12/12 10:58:36;;;;;;;18.60;11.93;;;;;;;4.18;100.00;99985.97;1634933;86;21761;-71
2021/12/12 11:01:18;;;;;;;18.42;11.63;;;;;;;4.18;100.00;99982.44;1639157;85;21652;-71
2021/12/12 11:04:16;;;;;;;17.87;11.25;;;;;;;4.19;100.00;99993.05;1633924;86;21071;-71
2021/12/12 11:06:48;;;;;;;17.98;11.78;;;;;;;4.20;100.00;99989.79;1635686;86;21168;-71
2021/12/12 11:09:38;;;;;;;18.75;10.32;;;;;;;4.21;100.00;99985.98;1631207;86;21559;-68
2021/12/12 11:12:12;;;;;;;19.75;11.63;;;;;;;4.18;100.00;99984.61;1647569;86;21014;-68
2021/12/12 11:15:04;;;;;;;20.30;11.33;;;;;;;4.11;100.00;99981.84;1637259;86;21640;-69
2021/12/12 11:18:05;;;;;;;20.35;12.25;;;;;;;4.11;100.00;99981.84;1616170;86;21077;-66
2021/12/12 11:20:39;;;;;;;20.97;11.10;;;;;;;4.08;100.00;99973.69;1632555;86;21087;-70
2021/12/12 11:23:20;;;;;;;16.70;10.00;;;;;;;4.08;100.00;99973.69;1636621;86;20966;-70
2021/12/12 11:25:58;;;;;;;18.87;10.55;;;;;;;4.05;100.00;99965.23;1587484;89;21019;-70
2021/12/12 11:28:35;;;;;;;21.40;10.93;;;;;;;4.01;100.00;99964.98;1601563;88;20977;-70
2021/12/12 11:31:21;;;;;;;19.27;10.80;;;;;;;3.98;100.00;99960.06;1610675;88;20933;-70
2021/12/12 11:33:53;;;;;;;19.67;10.75;;;;;;;3.94;100.00;99962.48;1612635;89;21211;-70
2021/12/12 11:36:32;;;;;;;20.70;10.70;;;;;;;3.89;100.00;99954.30;1610144;88;20973;-70
2021/12/12 11:39:07;;;;;;;20.00;10.82;;;;;;;3.88;100.00;99956.75;1610427;89;21532;-70
2021/12/12 11:41:52;;;;;;;19.27;11.22;;;;;;;3.91;100.00;99954.05;1588179;89;21075;-70
2021/12/12 11:44:37;;;;;;;21.00;11.15;;;;;;;3.96;100.00;99942.67;1590890;89;20901;-70
2021/12/12 11:47:09;;;;;;;20.05;10.30;;;;;;;3.96;100.00;99942.67;1603258;89;21776;-70
2021/12/12 11:49:59;;;;;;;16.02;9.35;;;;;;;3.96;100.00;99941.86;1611525;89;20934;-70
2021/12/12 11:52:47;;;;;;;19.67;9.08;;;;;;;3.90;100.00;99943.72;1611894;89;20977;-70
2021/12/12 11:55:29;;;;;;;17.62;9.23;;;;;;;3.88;100.00;99939.63;1590859;89;21583;-70
2021/12/12 11:58:23;;;;;;;18.40;9.53;;;;;;;3.84;100.00;99939.87;1610664;89;21544;-70
2021/12/12 12:01:07;;;;;;;18.17;9.60;;;;;;;3.84;100.00;99942.05;1610263;89;21514;-70
2021/12/12 12:04:02;;;;;;;16.80;10.10;;;;;;;3.82;100.00;99941.49;1611627;89;20984;-70
2021/12/12 12:07:06;;;;;;;17.62;10.08;;;;;;;3.75;100.00;99947.69;1610607;89;21611;-70
2021/12/12 12:10:02;;;;;;;18.62;11.40;;;;;;;3.75;100.00;99947.69;1590809;89;21623;-70
2021/12/12 12:12:57;;;;;;;16.15;9.18;;;;;;;3.68;100.00;99941.67;1576617;89;20920;-70
2021/12/12 12:15:59;;;;;;;17.85;10.50;;;;;;;3.68;100.00;99941.67;1611613;89;21548;-70
2021/12/12 12:19:04;;;;;;;19.82;11.00;;;;;;;3.67;100.00;99928.35;1590712;89;20940;-77
2021/12/12 12:21:53;;;;;;;22.22;11.03;;;;;;;3.64;100.00;99921.00;1611500;89;21008;-73